Time;durP1;ratioP1;P1;durP2;ratioP2;P2;SDS_P1;SDS_P2;PMS_P1;PMS_P2;Temp;Humidity;BMP_temperature;BMP_pressure;BME280_temperature;BME280_humidity;BME280_pressure;Samples;Min_cycle;Max_cycle;Signal;HPM_P1;HPM_P2
2022/03/05 00:00:22;;;;;;;1.17;0.30;;;0.90;99.90;;;;;;4983756;28;20045;-76
2022/03/05 00:02:47;;;;;;;2.10;0.85;;;0.80;99.90;;;;;;4999693;28;20030;-76
2022/03/05 00:05:13;;;;;;;0.43;0.43;;;0.90;99.90;;;;;;4982145;28;20041;-76
2022/03/05 00:07:39;;;;;;;2.92;1.00;;;0.80;99.90;;;;;;5000107;28;20132;-76
2022/03/05 00:10:05;;;;;;;0.20;0.20;;;0.90;99.90;;;;;;4979675;28;20042;-76
2022/03/05 00:12:31;;;;;;;0.28;0.22;;;0.90;99.90;;;;;;4995202;28;20124;-76
2022/03/05 00:14:56;;;;;;;0.20;0.20;;;0.90;99.90;;;;;;4995995;28;20037;-76
2022/03/05 00:17:22;;;;;;;0.30;0.30;;;0.90;99.90;;;;;;4964648;28;20049;-76
2022/03/05 00:19:48;;;;;;;1.38;1.08;;;0.90;99.90;;;;;;4965512;28;20037;-76
2022/03/05 00:22:14;;;;;;;1.60;0.85;;;0.90;99.90;;;;;;4960647;28;20064;-76
2022/03/05 00:24:39;;;;;;;1.10;1.00;;;0.80;99.90;;;;;;4979492;28;20029;-76
2022/03/05 00:27:05;;;;;;;0.40;0.40;;;0.80;99.90;;;;;;4997129;28;20048;-76
2022/03/05 00:29:30;;;;;;;0.20;0.20;;;0.90;99.90;;;;;;4996724;28;20085;-76
2022/03/05 00:31:56;;;;;;;0.45;0.40;;;0.90;99.90;;;;;;4999380;28;20053;-76
2022/03/05 00:34:22;;;;;;;0.20;0.20;;;0.80;99.90;;;;;;5000866;28;20053;-76
2022/03/05 00:36:48;;;;;;;0.45;0.43;;;0.90;99.90;;;;;;4993094;28;20388;-76
2022/03/05 00:39:13;;;;;;;0.10;0.10;;;0.90;99.90;;;;;;5000006;28;20034;-76
2022/03/05 00:41:39;;;;;;;0.30;0.30;;;0.80;99.90;;;;;;4998665;28;20125;-76
2022/03/05 00:44:04;;;;;;;1.75;0.95;;;0.80;99.90;;;;;;4998573;28;20050;-76
2022/03/05 00:46:30;;;;;;;0.20;0.20;;;0.80;99.90;;;;;;4977413;28;20068;-75
2022/03/05 00:48:56;;;;;;;0.75;0.75;;;0.80;99.90;;;;;;4997841;28;20045;-76
2022/03/05 00:51:21;;;;;;;0.10;0.10;;;0.80;99.90;;;;;;4983854;28;20563;-76
2022/03/05 00:53:47;;;;;;;0.10;0.10;;;0.80;99.90;;;;;;5003426;28;20034;-76
2022/03/05 00:56:12;;;;;;;1.95;0.98;;;0.80;99.90;;;;;;4979054;28;20069;-76
2022/03/05 00:58:38;;;;;;;0.52;0.45;;;0.80;99.90;;;;;;4981577;28;20137;-76
2022/03/05 01:01:03;;;;;;;0.68;0.22;;;0.80;99.90;;;;;;4982445;28;20065;-76
2022/03/05 01:03:29;;;;;;;0.43;0.32;;;0.80;99.90;;;;;;5000639;28;20038;-76
2022/03/05 01:05:55;;;;;;;0.95;0.38;;;0.80;99.90;;;;;;4982790;28;20112;-76
2022/03/05 01:08:21;;;;;;;0.80;0.63;;;0.80;99.90;;;;;;4995901;28;20050;-76
2022/03/05 01:10:47;;;;;;;0.30;0.30;;;0.80;99.90;;;;;;5000611;28;20041;-76
2022/03/05 01:13:13;;;;;;;0.80;0.20;;;0.80;99.90;;;;;;4986044;28;20037;-76
2022/03/05 01:15:39;;;;;;;1.75;0.25;;;0.80;99.90;;;;;;4990094;28;20046;-76
2022/03/05 01:18:04;;;;;;;0.17;0.17;;;0.80;99.90;;;;;;4984047;28;20045;-76
2022/03/05 01:20:30;;;;;;;1.02;0.50;;;0.70;99.90;;;;;;5000597;28;20522;-76
2022/03/05 01:22:56;;;;;;;0.10;0.10;;;0.80;99.90;;;;;;4983658;28;20030;-76
2022/03/05 01:25:21;;;;;;;0.43;0.25;;;0.70;99.90;;;;;;4980070;28;20045;-76
2022/03/05 01:27:47;;;;;;;0.47;0.47;;;0.70;99.90;;;;;;4980746;28;20045;-76
2022/03/05 01:30:13;;;;;;;1.35;1.02;;;0.80;99.90;;;;;;4977259;28;20073;-76
2022/03/05 01:32:38;;;;;;;0.43;0.17;;;0.80;99.90;;;;;;4999491;28;20142;-76
2022/03/05 01:35:05;;;;;;;0.10;0.10;;;0.70;99.90;;;;;;4995163;28;20053;-76
2022/03/05 01:37:31;;;;;;;0.80;0.17;;;0.70;99.90;;;;;;4997742;28;20091;-76
2022/03/05 01:39:57;;;;;;;0.75;0.63;;;0.70;99.90;;;;;;4981661;28;20038;-76
2022/03/05 01:42:24;;;;;;;0.75;0.65;;;0.70;99.90;;;;;;4998671;28;20060;-76
2022/03/05 01:44:50;;;;;;;0.03;0.03;;;0.70;99.90;;;;;;4996212;28;20038;-76
2022/03/05 01:47:16;;;;;;;0.70;0.50;;;0.70;99.90;;;;;;4999479;28;20045;-76
2022/03/05 01:49:42;;;;;;;1.33;0.55;;;0.70;99.90;;;;;;4979230;28;20048;-76
2022/03/05 01:52:07;;;;;;;0.20;0.20;;;0.70;99.90;;;;;;4997652;28;20045;-76
2022/03/05 01:54:33;;;;;;;0.63;0.28;;;0.70;99.90;;;;;;4994602;28;20037;-76
2022/03/05 01:57:00;;;;;;;0.28;0.22;;;0.70;99.90;;;;;;4996495;28;20033;-76
2022/03/05 01:59:25;;;;;;;0.32;0.20;;;0.70;99.90;;;;;;4983401;28;20402;-76
2022/03/05 02:01:51;;;;;;;0.10;0.10;;;0.70;99.90;;;;;;4980291;28;20038;-76
2022/03/05 02:04:17;;;;;;;0.10;0.10;;;0.70;99.90;;;;;;4983000;28;20035;-76
2022/03/05 02:06:43;;;;;;;0.10;0.10;;;0.70;99.90;;;;;;4972571;28;20037;-76
2022/03/05 02:09:09;;;;;;;0.63;0.60;;;0.70;99.90;;;;;;4980627;28;20034;-76
2022/03/05 02:11:35;;;;;;;0.10;0.10;;;0.70;99.90;;;;;;4958152;28;20068;-76
2022/03/05 02:14:00;;;;;;;0.30;0.22;;;0.70;99.90;;;;;;4975372;28;20157;-76
2022/03/05 02:16:26;;;;;;;0.45;0.20;;;0.70;99.90;;;;;;4979003;28;20033;-76
2022/03/05 02:18:55;;;;;;;0.45;0.40;;;0.60;99.90;;;;;;4979124;28;20037;-76
2022/03/05 02:21:23;;;;;;;0.10;0.10;;;0.70;99.90;;;;;;4992432;28;20438;-76
2022/03/05 02:23:49;;;;;;;1.10;1.00;;;0.70;99.90;;;;;;4997421;28;20030;-76
2022/03/05 02:26:15;;;;;;;0.90;0.75;;;0.70;99.90;;;;;;4982351;28;20136;-76
2022/03/05 02:28:40;;;;;;;0.10;0.10;;;0.70;99.90;;;;;;4993849;28;20112;-76
2022/03/05 02:31:06;;;;;;;0.82;0.30;;;0.60;99.90;;;;;;4979168;28;20561;-76
2022/03/05 02:33:32;;;;;;;0.20;0.20;;;0.70;99.90;;;;;;4972503;28;20089;-76
2022/03/05 02:35:57;;;;;;;0.20;0.20;;;0.60;99.90;;;;;;4975946;28;20060;-76
2022/03/05 02:38:24;;;;;;;0.10;0.10;;;0.60;99.90;;;;;;4977393;28;20052;-76
2022/03/05 02:40:50;;;;;;;0.25;0.25;;;0.60;99.90;;;;;;4973817;28;20030;-76
2022/03/05 02:43:17;;;;;;;1.30;0.93;;;0.60;99.90;;;;;;4994388;28;20124;-76
2022/03/05 02:45:43;;;;;;;0.10;0.10;;;0.60;99.90;;;;;;4995247;28;20029;-77
2022/03/05 02:48:12;;;;;;;0.15;0.15;;;0.60;99.90;;;;;;4978636;28;20096;-76
2022/03/05 02:50:38;;;;;;;0.13;0.05;;;0.50;99.90;;;;;;4975925;28;20415;-76
2022/03/05 02:53:04;;;;;;;0.10;0.10;;;0.50;99.90;;;;;;4989136;28;20080;-76
2022/03/05 02:55:30;;;;;;;0.88;0.88;;;0.50;99.90;;;;;;4989391;28;20070;-76
2022/03/05 02:57:56;;;;;;;0.20;0.20;;;0.50;99.90;;;;;;4994847;28;20085;-76
2022/03/05 03:00:21;;;;;;;0.25;0.25;;;0.50;99.90;;;;;;4997873;28;20045;-76
2022/03/05 03:02:49;;;;;;;1.77;0.30;;;0.50;99.90;;;;;;4973684;28;20475;-76
2022/03/05 03:05:16;;;;;;;0.32;0.32;;;0.50;99.90;;;;;;4998458;28;20053;-77
2022/03/05 03:07:42;;;;;;;0.15;0.15;;;0.40;99.90;;;;;;4984783;28;20076;-76
2022/03/05 03:10:09;;;;;;;0.30;0.30;;;0.40;99.90;;;;;;5001776;28;20063;-76
2022/03/05 03:12:35;;;;;;;1.17;0.20;;;0.40;99.90;;;;;;4993769;28;20058;-76
2022/03/05 03:15:02;;;;;;;0.10;0.10;;;0.40;99.90;;;;;;4995686;28;20388;-77
2022/03/05 03:17:29;;;;;;;0.10;0.10;;;0.40;99.90;;;;;;4994697;28;20044;-76
2022/03/05 03:19:55;;;;;;;0.15;0.15;;;0.40;99.90;;;;;;4998067;28;20038;-76
2022/03/05 03:22:20;;;;;;;0.55;0.30;;;0.40;99.90;;;;;;4996295;28;20067;-76
2022/03/05 03:24:46;;;;;;;0.20;0.20;;;0.40;99.90;;;;;;5002720;28;20041;-76
2022/03/05 03:27:12;;;;;;;0.17;0.17;;;0.40;99.90;;;;;;4997654;28;20041;-77
2022/03/05 03:29:38;;;;;;;0.10;0.10;;;0.40;99.90;;;;;;4997129;28;20045;-76
2022/03/05 03:32:04;;;;;;;0.10;0.10;;;0.40;99.90;;;;;;4997277;28;20049;-77
2022/03/05 03:34:30;;;;;;;0.52;0.52;;;0.40;99.90;;;;;;4982541;28;20045;-77
2022/03/05 03:36:55;;;;;;;0.25;0.22;;;0.40;99.90;;;;;;4994597;28;20416;-77
2022/03/05 03:39:21;;;;;;;0.80;0.65;;;0.40;99.90;;;;;;4974895;28;20415;-76
2022/03/05 03:41:46;;;;;;;0.10;0.10;;;0.40;99.90;;;;;;4981114;28;20564;-77
2022/03/05 03:44:13;;;;;;;1.13;0.45;;;0.40;99.90;;;;;;4978029;28;20068;-77
2022/03/05 03:46:39;;;;;;;0.20;0.20;;;0.40;99.90;;;;;;4979009;28;20057;-77
2022/03/05 03:49:05;;;;;;;0.10;0.10;;;0.30;99.90;;;;;;4982176;28;20030;-77
2022/03/05 03:51:31;;;;;;;0.45;0.22;;;0.40;99.90;;;;;;5000282;28;20046;-76
2022/03/05 03:53:56;;;;;;;0.35;0.35;;;0.30;99.90;;;;;;4992968;28;20045;-76
2022/03/05 03:56:22;;;;;;;0.50;0.50;;;0.30;99.90;;;;;;4994864;28;20554;-77
2022/03/05 03:58:47;;;;;;;0.22;0.20;;;0.30;99.90;;;;;;4982800;28;20063;-77
2022/03/05 04:01:13;;;;;;;1.10;0.60;;;0.30;99.90;;;;;;4991132;28;20093;-76
2022/03/05 04:03:39;;;;;;;0.10;0.10;;;0.30;99.90;;;;;;4969005;28;20048;-76
2022/03/05 04:06:04;;;;;;;0.77;0.13;;;0.30;99.90;;;;;;4966201;28;20041;-76
2022/03/05 04:08:42;;;;;;;1.25;0.70;;;0.30;99.90;;;;;;4987924;28;20097;-76
2022/03/05 04:11:12;;;;;;;0.10;0.10;;;0.30;99.90;;;;;;4985491;28;20038;-76
2022/03/05 04:13:38;;;;;;;0.20;0.20;;;0.30;99.90;;;;;;4980037;28;20403;-76
2022/03/05 04:16:04;;;;;;;0.10;0.10;;;0.20;99.90;;;;;;4980015;28;20132;-77
2022/03/05 04:18:30;;;;;;;0.80;0.45;;;0.20;99.90;;;;;;4983816;28;20585;-76
2022/03/05 04:20:56;;;;;;;0.00;0.00;;;0.20;99.90;;;;;;4981138;28;20099;-76
2022/03/05 04:23:22;;;;;;;0.10;0.10;;;0.20;99.90;;;;;;4997873;28;20041;-77
2022/03/05 04:25:47;;;;;;;0.17;0.17;;;0.20;99.90;;;;;;4980749;28;20522;-77
2022/03/05 04:28:13;;;;;;;0.03;0.03;;;0.20;99.90;;;;;;4976335;28;20156;-76
2022/03/05 04:30:39;;;;;;;0.20;0.20;;;0.20;99.90;;;;;;4975562;28;20041;-76
2022/03/05 04:33:05;;;;;;;0.10;0.10;;;0.20;99.90;;;;;;4995385;28;20057;-76
2022/03/05 04:35:30;;;;;;;0.10;0.10;;;0.20;99.90;;;;;;4980191;28;20470;-76
2022/03/05 04:37:56;;;;;;;0.30;0.30;;;0.20;99.90;;;;;;4993881;28;20033;-76
2022/03/05 04:40:22;;;;;;;0.10;0.10;;;0.10;99.90;;;;;;4993234;28;20128;-76
2022/03/05 04:42:49;;;;;;;0.80;0.22;;;0.10;99.90;;;;;;4991102;28;20097;-77
2022/03/05 04:45:15;;;;;;;0.30;0.30;;;0.20;99.90;;;;;;4989610;28;20046;-77
2022/03/05 04:47:40;;;;;;;1.52;0.35;;;0.20;99.90;;;;;;4990884;28;20660;-77
2022/03/05 04:50:08;;;;;;;0.10;0.10;;;0.10;99.90;;;;;;4993009;28;20872;-77
2022/03/05 04:52:34;;;;;;;0.43;0.43;;;0.10;99.90;;;;;;4992465;28;20049;-76
2022/03/05 04:55:01;;;;;;;1.65;0.40;;;0.10;99.90;;;;;;4976063;28;20064;-76
2022/03/05 04:57:26;;;;;;;0.17;0.17;;;0.20;99.90;;;;;;4998331;28;20041;-76
2022/03/05 04:59:52;;;;;;;0.15;0.15;;;0.20;99.90;;;;;;4967176;28;20045;-76
2022/03/05 05:02:18;;;;;;;0.70;0.70;;;0.20;99.90;;;;;;4989922;28;20045;-76
2022/03/05 05:04:44;;;;;;;0.30;0.30;;;0.20;99.90;;;;;;4961209;28;20049;-76
2022/03/05 05:07:10;;;;;;;0.10;0.10;;;0.10;99.90;;;;;;4992969;28;20109;-76
2022/03/05 05:09:35;;;;;;;0.10;0.10;;;0.10;99.90;;;;;;4976844;28;20045;-76
2022/03/05 05:12:01;;;;;;;0.10;0.10;;;0.10;99.90;;;;;;4989251;28;20134;-76
2022/03/05 05:14:27;;;;;;;0.25;0.25;;;0.10;99.90;;;;;;4978344;28;20045;-76
2022/03/05 05:16:52;;;;;;;0.10;0.10;;;0.00;99.90;;;;;;4992888;28;20038;-77
2022/03/05 05:19:24;;;;;;;0.10;0.10;;;0.00;99.90;;;;;;4993940;28;20056;-76
2022/03/05 05:21:50;;;;;;;0.10;0.10;;;0.00;99.90;;;;;;4991843;28;20121;-76
2022/03/05 05:24:16;;;;;;;0.15;0.15;;;0.00;99.90;;;;;;4994375;28;20060;-76
2022/03/05 05:26:42;;;;;;;0.50;0.50;;;0.00;99.90;;;;;;4996025;28;20500;-76
2022/03/05 05:29:08;;;;;;;0.80;0.50;;;0.00;99.90;;;;;;4976706;28;20463;-76
2022/03/05 05:31:33;;;;;;;0.00;0.00;;;0.00;99.90;;;;;;4974530;28;20499;-76
2022/03/05 05:33:59;;;;;;;0.00;0.00;;;0.00;99.90;;;;;;4990044;28;20108;-76
2022/03/05 05:36:25;;;;;;;0.15;0.15;;;-0.10;99.90;;;;;;4981529;28;20542;-76
2022/03/05 05:38:51;;;;;;;1.63;0.73;;;0.00;99.90;;;;;;4990648;28;20029;-76
2022/03/05 05:41:18;;;;;;;0.32;0.32;;;-0.10;99.90;;;;;;4978441;28;20527;-76
2022/03/05 05:43:44;;;;;;;0.00;0.00;;;-0.10;99.90;;;;;;4996593;28;20108;-76
2022/03/05 05:46:11;;;;;;;0.10;0.10;;;0.00;99.90;;;;;;4994333;28;20111;-76
2022/03/05 05:48:37;;;;;;;0.30;0.30;;;-0.10;99.90;;;;;;4994029;28;20433;-76
2022/03/05 05:51:02;;;;;;;0.00;0.00;;;-0.10;99.90;;;;;;4972669;28;20045;-77
2022/03/05 05:53:28;;;;;;;0.38;0.20;;;-0.10;99.90;;;;;;4975230;28;20104;-76
2022/03/05 05:55:54;;;;;;;0.20;0.20;;;-0.10;99.90;;;;;;4981749;28;20053;-77
2022/03/05 05:58:21;;;;;;;3.92;0.25;;;-0.10;99.90;;;;;;4983161;28;20041;-76
2022/03/05 06:00:47;;;;;;;0.45;0.45;;;-0.10;99.90;;;;;;4982765;28;20041;-76
2022/03/05 06:03:13;;;;;;;0.30;0.30;;;-0.20;99.90;;;;;;4986962;28;20037;-76
2022/03/05 06:05:38;;;;;;;1.17;0.22;;;-0.20;99.90;;;;;;4992611;28;20099;-76
2022/03/05 06:08:04;;;;;;;0.10;0.10;;;-0.20;99.90;;;;;;4989954;28;20416;-76
2022/03/05 06:10:30;;;;;;;1.92;0.30;;;-0.20;99.90;;;;;;4992459;28;20121;-76
2022/03/05 06:12:56;;;;;;;0.10;0.10;;;-0.20;99.90;;;;;;4991374;28;20052;-77
2022/03/05 06:15:22;;;;;;;0.20;0.20;;;-0.20;99.90;;;;;;4973555;28;20042;-76
2022/03/05 06:17:48;;;;;;;0.05;0.05;;;-0.20;99.90;;;;;;4974284;28;20048;-76
2022/03/05 06:20:13;;;;;;;0.43;0.43;;;-0.20;99.90;;;;;;4991506;28;20057;-76
2022/03/05 06:22:40;;;;;;;2.38;0.43;;;-0.20;99.90;;;;;;4977393;28;20434;-76
2022/03/05 06:25:07;;;;;;;0.10;0.10;;;-0.10;99.90;;;;;;4993133;28;20045;-76
2022/03/05 06:27:32;;;;;;;0.43;0.22;;;-0.10;99.90;;;;;;4979778;28;20065;-76
2022/03/05 06:29:58;;;;;;;0.20;0.20;;;-0.10;99.90;;;;;;4972835;28;20038;-76
2022/03/05 06:32:24;;;;;;;0.22;0.20;;;-0.10;99.90;;;;;;4990949;28;20058;-76
2022/03/05 06:34:54;;;;;;;1.10;0.68;;;-0.20;99.90;;;;;;4992451;28;20460;-76
2022/03/05 06:37:23;;;;;;;0.10;0.10;;;-0.20;99.90;;;;;;4976797;28;20033;-76
2022/03/05 06:39:49;;;;;;;0.17;0.10;;;-0.20;99.90;;;;;;4990884;28;20041;-76
2022/03/05 06:42:15;;;;;;;0.40;0.40;;;-0.20;99.90;;;;;;4997605;28;20042;-76
2022/03/05 06:44:41;;;;;;;0.30;0.30;;;-0.20;99.90;;;;;;4999002;28;20121;-76
2022/03/05 06:47:07;;;;;;;0.32;0.32;;;-0.20;99.90;;;;;;4995241;28;20248;-76
2022/03/05 06:49:33;;;;;;;0.73;0.32;;;-0.20;99.90;;;;;;4983800;28;20037;-76
2022/03/05 06:51:58;;;;;;;0.10;0.10;;;-0.20;99.90;;;;;;4998967;28;20037;-76
2022/03/05 06:54:25;;;;;;;0.10;0.10;;;-0.20;99.90;;;;;;5001442;28;20030;-76
2022/03/05 06:56:51;;;;;;;0.10;0.10;;;-0.20;99.90;;;;;;4999870;28;20061;-76
2022/03/05 06:59:17;;;;;;;0.10;0.10;;;-0.20;99.90;;;;;;4997137;28;20630;-76
2022/03/05 07:01:43;;;;;;;0.10;0.10;;;-0.20;99.90;;;;;;4996593;28;20030;-76
2022/03/05 07:04:08;;;;;;;1.05;1.05;;;-0.10;99.90;;;;;;4981718;28;20034;-76
2022/03/05 07:06:34;;;;;;;0.20;0.20;;;-0.10;99.90;;;;;;5015377;28;20038;-76
2022/03/05 07:09:00;;;;;;;0.13;0.13;;;0.00;99.90;;;;;;4998857;28;20503;-76
2022/03/05 07:11:25;;;;;;;0.20;0.20;;;0.00;99.90;;;;;;4996332;28;20057;-75
2022/03/05 07:13:51;;;;;;;0.40;0.40;;;0.00;99.90;;;;;;4975811;28;20491;-76
2022/03/05 07:16:17;;;;;;;1.40;0.40;;;0.00;99.90;;;;;;4993875;28;20168;-76
2022/03/05 07:18:43;;;;;;;0.10;0.10;;;0.10;99.90;;;;;;4995208;28;20038;-76
2022/03/05 07:21:08;;;;;;;0.40;0.38;;;0.10;99.90;;;;;;4996536;28;20044;-76
2022/03/05 07:23:34;;;;;;;0.80;0.30;;;0.10;99.90;;;;;;4995517;28;20042;-76
2022/03/05 07:25:59;;;;;;;1.50;1.02;;;0.10;99.90;;;;;;4996606;28;20034;-76
2022/03/05 07:28:25;;;;;;;2.30;0.50;;;0.20;99.90;;;;;;4994659;28;20060;-77
2022/03/05 07:30:51;;;;;;;0.10;0.10;;;0.20;99.90;;;;;;4980334;28;20087;-76
2022/03/05 07:33:17;;;;;;;0.10;0.10;;;0.20;99.90;;;;;;4982851;28;20057;-76
2022/03/05 07:35:43;;;;;;;1.67;1.10;;;0.20;99.90;;;;;;4981346;28;20041;-77
2022/03/05 07:38:09;;;;;;;0.10;0.10;;;0.30;99.90;;;;;;4979876;28;20045;-77
2022/03/05 07:40:34;;;;;;;0.20;0.10;;;0.30;99.90;;;;;;5000478;28;20036;-77
2022/03/05 07:43:00;;;;;;;0.55;0.55;;;0.40;99.90;;;;;;4998154;28;20480;-77
2022/03/05 07:45:26;;;;;;;0.35;0.35;;;0.40;99.90;;;;;;4985369;28;20126;-77
2022/03/05 07:47:52;;;;;;;1.38;0.95;;;0.40;99.90;;;;;;4975604;28;20034;-76
2022/03/05 07:50:18;;;;;;;0.32;0.20;;;0.40;99.90;;;;;;4969148;28;20042;-77
2022/03/05 07:52:43;;;;;;;0.43;0.38;;;0.50;99.90;;;;;;4990330;28;20044;-76
2022/03/05 07:55:09;;;;;;;0.77;0.57;;;0.50;99.90;;;;;;4991558;28;20034;-76
2022/03/05 07:57:35;;;;;;;0.13;0.13;;;0.50;99.90;;;;;;4976627;28;20377;-76
2022/03/05 08:00:00;;;;;;;0.10;0.10;;;0.60;99.90;;;;;;4988024;28;20152;-76
2022/03/05 08:02:26;;;;;;;0.20;0.20;;;0.60;99.90;;;;;;4990610;28;20049;-76
2022/03/05 08:04:52;;;;;;;4.43;1.17;;;0.60;99.90;;;;;;4987311;28;20050;-76
2022/03/05 08:07:18;;;;;;;1.02;0.17;;;0.60;99.90;;;;;;4970632;28;20045;-76
2022/03/05 08:09:44;;;;;;;0.35;0.28;;;0.70;99.90;;;;;;4986059;28;20832;-76
2022/03/05 08:12:10;;;;;;;2.50;0.45;;;0.80;99.90;;;;;;4969969;28;20074;-76
2022/03/05 08:14:37;;;;;;;1.45;0.45;;;0.80;99.90;;;;;;4999826;28;20053;-76
2022/03/05 08:17:03;;;;;;;1.08;0.77;;;0.80;99.90;;;;;;4984526;28;20461;-76
2022/03/05 08:19:29;;;;;;;0.30;0.30;;;0.80;99.90;;;;;;4968738;28;20039;-76
2022/03/05 08:21:54;;;;;;;0.22;0.22;;;0.80;99.90;;;;;;4985905;28;20156;-76
2022/03/05 08:24:20;;;;;;;0.10;0.10;;;0.90;99.90;;;;;;4985358;28;20034;-76
2022/03/05 08:26:45;;;;;;;0.30;0.20;;;1.00;99.90;;;;;;4981080;28;20092;-76
2022/03/05 08:29:11;;;;;;;1.02;0.40;;;0.90;99.90;;;;;;4989909;28;20191;-75
2022/03/05 08:31:37;;;;;;;0.60;0.40;;;1.00;99.90;;;;;;4990574;28;20128;-76
2022/03/05 08:34:03;;;;;;;0.30;0.30;;;1.00;99.90;;;;;;4974528;28;20488;-76
2022/03/05 08:36:29;;;;;;;0.17;0.13;;;1.00;99.90;;;;;;4987487;28;20061;-75
2022/03/05 08:38:55;;;;;;;0.32;0.32;;;1.10;99.90;;;;;;4976558;28;20144;-76
2022/03/05 08:41:21;;;;;;;0.70;0.20;;;1.10;99.90;;;;;;4977449;28;20092;-75
2022/03/05 08:43:47;;;;;;;0.35;0.32;;;1.20;99.90;;;;;;4981633;28;20599;-75
2022/03/05 08:46:13;;;;;;;3.25;1.10;;;1.20;99.90;;;;;;4972101;28;20042;-76
2022/03/05 08:48:38;;;;;;;0.80;0.45;;;1.30;99.90;;;;;;4989976;28;20046;-76
2022/03/05 08:51:04;;;;;;;1.13;0.25;;;1.30;99.90;;;;;;4974995;28;20482;-76
2022/03/05 08:53:30;;;;;;;0.25;0.25;;;1.30;99.90;;;;;;4992809;28;20087;-76
2022/03/05 08:55:56;;;;;;;3.15;1.13;;;1.30;99.90;;;;;;4975827;28;20125;-76
2022/03/05 08:58:22;;;;;;;1.20;0.57;;;1.40;99.90;;;;;;4974649;28;20078;-76
2022/03/05 09:00:49;;;;;;;1.10;0.90;;;1.40;99.90;;;;;;4990634;28;20108;-76
2022/03/05 09:03:16;;;;;;;0.52;0.52;;;1.40;99.90;;;;;;4976703;28;20376;-76
2022/03/05 09:05:42;;;;;;;0.10;0.10;;;1.50;99.90;;;;;;4992925;28;20042;-76
2022/03/05 09:08:08;;;;;;;0.35;0.35;;;1.50;99.90;;;;;;4993398;28;20085;-76
2022/03/05 09:10:34;;;;;;;1.10;0.30;;;1.60;99.90;;;;;;4991497;28;20128;-76
2022/03/05 09:13:00;;;;;;;0.17;0.17;;;1.60;99.90;;;;;;4992670;28;20172;-76
2022/03/05 09:15:26;;;;;;;3.30;0.80;;;1.70;99.90;;;;;;4975495;28;20046;-76
2022/03/05 09:17:51;;;;;;;0.22;0.22;;;1.70;99.90;;;;;;4990494;28;20034;-76
2022/03/05 09:20:17;;;;;;;1.75;1.30;;;1.70;99.90;;;;;;5005435;28;20484;-76
2022/03/05 09:22:43;;;;;;;0.32;0.32;;;1.80;99.90;;;;;;4992208;28;20372;-76
2022/03/05 09:25:09;;;;;;;0.17;0.13;;;1.70;99.90;;;;;;4977744;28;20048;-75
2022/03/05 09:27:36;;;;;;;0.40;0.40;;;1.80;99.90;;;;;;4969374;28;20053;-75
2022/03/05 09:30:03;;;;;;;0.00;0.00;;;1.80;99.90;;;;;;4984103;28;20134;-74
2022/03/05 09:32:29;;;;;;;0.65;0.63;;;1.90;99.90;;;;;;4979712;28;20107;-75
2022/03/05 09:34:59;;;;;;;2.47;0.75;;;1.90;99.90;;;;;;4985721;28;20136;-74
2022/03/05 09:37:25;;;;;;;2.40;0.90;;;1.90;99.90;;;;;;4981242;28;20472;-74
2022/03/05 09:39:52;;;;;;;0.38;0.38;;;1.90;99.90;;;;;;4984877;28;20045;-75
2022/03/05 09:42:17;;;;;;;0.88;0.88;;;2.00;99.90;;;;;;4985691;28;20088;-75
2022/03/05 09:44:43;;;;;;;0.55;0.43;;;2.00;99.90;;;;;;4987774;28;20038;-75
2022/03/05 09:47:09;;;;;;;0.63;0.63;;;2.10;99.90;;;;;;4971773;28;20387;-75
2022/03/05 09:49:38;;;;;;;1.33;0.93;;;2.10;99.90;;;;;;4975229;28;20034;-75
2022/03/05 09:52:04;;;;;;;0.95;0.82;;;2.10;99.90;;;;;;4991390;28;20076;-75
2022/03/05 09:54:29;;;;;;;3.15;0.70;;;2.10;99.90;;;;;;4990674;28;20558;-75
2022/03/05 09:56:55;;;;;;;0.35;0.30;;;2.20;99.90;;;;;;4986167;28;20116;-75
2022/03/05 09:59:21;;;;;;;1.05;0.95;;;2.20;99.90;;;;;;4979168;28;20697;-75
2022/03/05 10:01:47;;;;;;;0.70;0.35;;;2.20;99.90;;;;;;4965405;28;20042;-75
2022/03/05 10:04:21;;;;;;;0.40;0.40;;;2.20;99.90;;;;;;4970453;28;20038;-75
2022/03/05 10:07:09;;;;;;;0.55;0.50;;;2.30;99.90;;;;;;4977913;28;20111;-75
2022/03/05 10:09:36;;;;;;;0.47;0.45;;;2.30;99.90;;;;;;4968638;28;20042;-75
2022/03/05 10:12:21;;;;;;;0.30;0.30;;;2.30;99.90;;;;;;4986813;28;20115;-75
2022/03/05 10:15:06;;;;;;;1.08;0.85;;;2.40;99.90;;;;;;4994055;28;20053;-75
2022/03/05 10:18:04;;;;;;;0.22;0.22;;;2.40;99.90;;;;;;4986550;28;20038;-74
2022/03/05 10:20:33;;;;;;;1.35;1.20;;;2.40;99.90;;;;;;4960128;28;20373;-74
2022/03/05 10:23:04;;;;;;;4.20;1.02;;;2.50;99.90;;;;;;4988927;28;20034;-75
2022/03/05 10:25:40;;;;;;;2.30;1.38;;;2.50;99.90;;;;;;4988848;28;20061;-75
2022/03/05 10:28:16;;;;;;;6.82;0.93;;;2.60;99.90;;;;;;4989361;28;20220;-78
2022/03/05 10:30:46;;;;;;;0.68;0.28;;;2.60;99.90;;;;;;4985358;28;20044;-74
2022/03/05 10:33:24;;;;;;;0.73;0.40;;;2.60;99.90;;;;;;4976096;28;20082;-73
2022/03/05 10:35:50;;;;;;;0.93;0.77;;;2.60;99.90;;;;;;4989661;28;20129;-73
2022/03/05 10:38:16;;;;;;;0.55;0.20;;;2.60;99.90;;;;;;4970474;28;20042;-73
2022/03/05 10:40:42;;;;;;;0.52;0.20;;;2.70;99.90;;;;;;4985873;28;20034;-74
2022/03/05 10:43:09;;;;;;;0.40;0.40;;;2.70;99.90;;;;;;4974769;28;20034;-73
2022/03/05 10:45:50;;;;;;;0.35;0.35;;;2.80;99.90;;;;;;4978640;28;21564;-73
2022/03/05 10:48:23;;;;;;;1.00;0.85;;;2.80;99.90;;;;;;4969662;28;20042;-73
2022/03/05 10:50:59;;;;;;;0.43;0.40;;;2.80;99.90;;;;;;4970002;28;20038;-74
2022/03/05 10:53:45;;;;;;;0.50;0.50;;;2.90;99.90;;;;;;4968249;28;20157;-73
2022/03/05 10:56:29;;;;;;;;;;;2.90;99.90;;;;;;4984182;28;20547;-73
2022/03/05 10:59:07;;;;;;;0.63;0.63;;;3.00;99.90;;;;;;4986781;28;19927;-74
2022/03/05 11:01:36;;;;;;;0.70;0.47;;;3.00;99.90;;;;;;4987117;28;20146;-73
2022/03/05 11:04:04;;;;;;;1.02;0.75;;;3.10;99.90;;;;;;4973552;28;20381;-73
2022/03/05 11:06:29;;;;;;;0.35;0.35;;;3.10;99.90;;;;;;4987519;28;20049;-74
2022/03/05 11:08:56;;;;;;;0.60;0.43;;;3.10;99.90;;;;;;4987623;28;20394;-73
2022/03/05 11:11:22;;;;;;;0.73;0.30;;;3.20;99.90;;;;;;4972953;28;20053;-73
2022/03/05 11:13:48;;;;;;;0.85;0.38;;;3.20;99.90;;;;;;4970437;28;20034;-73
2022/03/05 11:16:14;;;;;;;0.68;0.52;;;3.20;99.90;;;;;;4988765;28;20046;-73
2022/03/05 11:18:40;;;;;;;0.70;0.70;;;3.20;99.90;;;;;;4988349;28;20038;-73
2022/03/05 11:21:07;;;;;;;1.77;0.50;;;3.30;99.90;;;;;;4964618;28;20069;-73
2022/03/05 11:23:34;;;;;;;0.75;0.65;;;3.30;99.90;;;;;;4991942;28;20038;-73
2022/03/05 11:26:00;;;;;;;0.38;0.35;;;3.40;99.90;;;;;;4986234;28;20041;-73
2022/03/05 11:28:38;;;;;;;1.08;0.47;;;3.30;99.90;;;;;;4991772;28;20527;-73
2022/03/05 11:31:21;;;;;;;1.23;0.80;;;3.40;99.90;;;;;;4994466;28;20388;-73
2022/03/05 11:33:48;;;;;;;0.43;0.38;;;3.40;99.90;;;;;;4989106;28;20097;-73
2022/03/05 11:36:23;;;;;;;0.95;0.52;;;3.40;99.90;;;;;;4967674;28;20088;-73
2022/03/05 11:39:04;;;;;;;0.52;0.40;;;3.50;99.90;;;;;;4976501;28;20038;-73
2022/03/05 11:41:30;;;;;;;0.05;0.05;;;3.60;99.90;;;;;;4991243;28;20438;-73
2022/03/05 11:44:11;;;;;;;1.02;0.50;;;3.50;99.90;;;;;;4993308;28;20038;-73
2022/03/05 11:46:37;;;;;;;1.00;0.88;;;3.60;99.90;;;;;;4993017;28;20073;-73
2022/03/05 11:49:02;;;;;;;2.58;0.43;;;3.60;99.90;;;;;;4984627;28;20088;-73
2022/03/05 11:51:28;;;;;;;2.60;0.45;;;3.60;99.90;;;;;;4986657;28;20057;-73
2022/03/05 11:54:14;;;;;;;0.75;0.57;;;3.70;99.90;;;;;;4965540;28;20595;-73
2022/03/05 11:57:04;;;;;;;1.55;0.93;;;3.70;99.90;;;;;;4981624;28;20508;-73
2022/03/05 11:59:34;;;;;;;1.67;0.30;;;3.70;99.90;;;;;;4989885;28;20496;-73
2022/03/05 12:02:00;;;;;;;0.00;0.00;;;3.70;99.90;;;;;;4989399;28;20116;-73
2022/03/05 12:04:28;;;;;;;2.30;0.85;;;3.80;99.90;;;;;;4991122;28;20614;-73
2022/03/05 12:07:22;;;;;;;1.95;0.60;;;3.80;99.90;;;;;;4972873;28;20037;-73
2022/03/05 12:09:59;;;;;;;0.77;0.60;;;3.80;99.90;;;;;;4986964;28;20614;-73
2022/03/05 12:12:24;;;;;;;2.45;0.60;;;3.80;99.90;;;;;;4975999;28;20509;-74
2022/03/05 12:14:59;;;;;;;3.45;0.52;;;3.90;99.90;;;;;;4990892;28;20045;-74
2022/03/05 12:17:25;;;;;;;0.40;0.40;;;3.90;99.90;;;;;;4973536;28;20562;-73
2022/03/05 12:19:51;;;;;;;1.38;0.55;;;3.90;99.90;;;;;;4970948;28;20046;-74
2022/03/05 12:22:17;;;;;;;1.38;0.77;;;3.90;99.90;;;;;;4986012;28;20048;-73
2022/03/05 12:24:43;;;;;;;0.25;0.25;;;4.00;99.90;;;;;;4991746;28;20038;-73
2022/03/05 12:27:19;;;;;;;0.63;0.63;;;4.00;99.90;;;;;;4985413;28;20038;-73
2022/03/05 12:29:48;;;;;;;0.20;0.20;;;4.00;99.90;;;;;;4976123;28;20099;-73
2022/03/05 12:32:15;;;;;;;0.43;0.43;;;4.00;99.90;;;;;;4990777;28;20050;-74
2022/03/05 12:34:41;;;;;;;0.90;0.80;;;4.00;99.90;;;;;;4974863;28;20069;-73
2022/03/05 12:37:07;;;;;;;0.50;0.50;;;4.00;99.90;;;;;;4989164;28;20030;-73
2022/03/05 12:39:33;;;;;;;0.40;0.10;;;4.10;99.90;;;;;;4974714;28;20029;-73
2022/03/05 12:41:59;;;;;;;1.00;0.40;;;4.10;99.90;;;;;;4993500;28;20179;-73
2022/03/05 12:44:24;;;;;;;0.25;0.25;;;4.10;99.90;;;;;;4995754;28;20030;-73
2022/03/05 12:46:50;;;;;;;1.52;0.55;;;4.20;99.90;;;;;;4976834;28;20100;-73
2022/03/05 12:49:16;;;;;;;0.30;0.22;;;4.20;99.90;;;;;;4992088;28;20050;-73
2022/03/05 12:51:42;;;;;;;0.85;0.43;;;4.30;99.90;;;;;;4976901;28;20092;-70
2022/03/05 12:54:08;;;;;;;2.47;0.85;;;4.30;99.90;;;;;;4989311;28;20033;-72